Time;durP1;ratioP1;P1;durP2;ratioP2;P2;SDS_P1;SDS_P2;PMS_P1;PMS_P2;Temp;Humidity;BMP_temperature;BMP_pressure;BME280_temperature;BME280_humidity;BME280_pressure;Samples;Min_cycle;Max_cycle;Signal;HPM_P1;HPM_P2
2022/05/06 00:01:39;;;;;;;4.32;3.90;;;20.20;49.20;;;;;;5075267;27;43473;-60
2022/05/06 00:04:07;;;;;;;3.80;3.40;;;20.20;49.20;;;;;;5075518;28;45796;-60
2022/05/06 00:06:34;;;;;;;4.32;3.92;;;20.20;49.30;;;;;;5083121;27;43493;-60
2022/05/06 00:09:04;;;;;;;3.90;3.53;;;20.20;49.30;;;;;;5077956;28;43489;-60
2022/05/06 00:11:32;;;;;;;4.28;3.90;;;20.20;49.30;;;;;;5070779;28;44053;-60
2022/05/06 00:13:59;;;;;;;4.25;3.70;;;20.20;49.30;;;;;;5073722;28;43812;-60
2022/05/06 00:16:28;;;;;;;4.32;3.92;;;20.20;49.30;;;;;;5080954;28;43999;-60
2022/05/06 00:18:55;;;;;;;4.22;3.78;;;20.10;49.20;;;;;;5077257;28;43423;-61
2022/05/06 00:21:23;;;;;;;3.83;3.53;;;20.10;49.30;;;;;;5074488;28;43462;-61
2022/05/06 00:23:50;;;;;;;4.03;3.60;;;20.10;49.30;;;;;;5074499;28;43782;-60
2022/05/06 00:26:17;;;;;;;3.78;3.47;;;20.10;49.30;;;;;;5079643;28;43843;-60
2022/05/06 00:28:45;;;;;;;3.60;3.30;;;20.10;49.20;;;;;;5076686;28;43449;-60
2022/05/06 00:31:12;;;;;;;4.55;4.15;;;20.10;49.20;;;;;;5074201;28;43525;-60
2022/05/06 00:33:40;;;;;;;4.28;3.90;;;20.00;49.20;;;;;;5082708;27;43882;-61
2022/05/06 00:36:08;;;;;;;3.90;3.60;;;20.10;49.30;;;;;;5076860;28;43683;-60
2022/05/06 00:38:36;;;;;;;3.70;3.40;;;20.10;49.30;;;;;;5075582;28;43474;-60
2022/05/06 00:41:03;;;;;;;4.20;3.53;;;20.10;49.30;;;;;;5073082;28;43518;-61
2022/05/06 00:43:31;;;;;;;4.47;4.07;;;20.10;49.30;;;;;;5080330;28;44664;-61
2022/05/06 00:45:58;;;;;;;4.00;3.70;;;20.00;49.30;;;;;;5073729;28;43420;-60
2022/05/06 00:48:28;;;;;;;4.20;3.80;;;20.00;49.30;;;;;;5072869;28;43431;-60
2022/05/06 00:50:58;;;;;;;4.22;3.83;;;20.00;49.30;;;;;;5070005;28;43485;-60
2022/05/06 00:53:26;;;;;;;4.03;3.72;;;20.00;49.30;;;;;;5083172;28;43853;-60
2022/05/06 00:55:56;;;;;;;3.83;3.53;;;20.00;49.30;;;;;;5069597;28;44091;-60
2022/05/06 00:58:25;;;;;;;4.20;3.78;;;20.00;49.30;;;;;;5068024;28;43553;-60
2022/05/06 01:00:52;;;;;;;3.72;3.42;;;19.90;49.20;;;;;;5071260;28;43443;-61
2022/05/06 01:03:20;;;;;;;3.90;3.60;;;19.90;49.30;;;;;;5080968;27;43940;-60
2022/05/06 01:05:49;;;;;;;3.83;3.50;;;19.90;49.30;;;;;;5072047;28;43704;-60
2022/05/06 01:08:17;;;;;;;4.15;3.75;;;19.90;49.30;;;;;;5070971;28;43403;-59
2022/05/06 01:10:45;;;;;;;3.92;3.60;;;19.90;49.30;;;;;;5083030;28;43671;-60
2022/05/06 01:13:13;;;;;;;4.50;3.50;;;19.90;49.30;;;;;;5078594;28;44917;-60
2022/05/06 01:15:41;;;;;;;3.67;3.33;;;19.90;49.30;;;;;;5079705;27;43957;-61
2022/05/06 01:18:23;;;;;;;3.78;3.47;;;19.90;49.30;;;;;;5067818;28;43476;-60
2022/05/06 01:20:52;;;;;;;3.63;3.30;;;19.80;49.20;;;;;;5082065;27;43466;-60
2022/05/06 01:23:20;;;;;;;3.85;3.55;;;19.80;49.30;;;;;;5073271;28;43753;-60
2022/05/06 01:25:48;;;;;;;3.92;3.63;;;19.80;49.30;;;;;;5071235;28;43485;-60
2022/05/06 01:28:16;;;;;;;3.50;3.20;;;19.80;49.30;;;;;;5081532;28;43370;-60
2022/05/06 01:30:47;;;;;;;3.67;3.38;;;19.80;49.30;;;;;;5082376;28;43537;-60
2022/05/06 01:33:21;;;;;;;3.70;3.40;;;19.80;49.30;;;;;;5078169;27;44659;-60
2022/05/06 01:35:52;;;;;;;3.53;3.33;;;19.80;49.30;;;;;;5067827;28;44116;-60
2022/05/06 01:38:24;;;;;;;;;;;19.80;49.30;;;;;;5080231;28;43411;-60
2022/05/06 01:40:58;;;;;;;3.83;3.53;;;19.80;49.30;;;;;;5076949;28;43519;-61
2022/05/06 01:43:39;;;;;;;3.47;3.00;;;19.80;49.30;;;;;;5079807;27;44684;-60
2022/05/06 01:46:09;;;;;;;3.65;3.35;;;19.70;49.20;;;;;;5084810;27;43458;-60
2022/05/06 01:48:37;;;;;;;3.25;2.95;;;19.70;49.20;;;;;;5073998;28;43510;-59
2022/05/06 01:51:07;;;;;;;3.53;3.22;;;19.70;49.20;;;;;;5074384;28;43449;-60
2022/05/06 01:53:36;;;;;;;3.55;3.25;;;19.70;49.20;;;;;;5070920;28;44091;-60
2022/05/06 01:56:03;;;;;;;3.50;3.20;;;19.70;49.20;;;;;;5071139;28;43881;-60
2022/05/06 01:58:37;;;;;;;3.22;3.03;;;19.70;49.20;;;;;;5078038;28;43494;-61
2022/05/06 02:01:06;;;;;;;3.47;3.17;;;19.70;49.30;;;;;;5083760;27;43639;-60
2022/05/06 02:06:26;;;;;;;3.08;2.88;;;19.60;49.10;;;;;;5093853;27;43522;-60
2022/05/06 02:09:16;;;;;;;3.40;3.10;;;19.60;49.30;;;;;;5084965;27;43424;-60
2022/05/06 02:11:53;;;;;;;3.08;2.88;;;19.60;49.30;;;;;;5065839;28;43510;-61
2022/05/06 02:14:26;;;;;;;3.28;3.05;;;19.60;49.30;;;;;;5072182;28;44073;-60
2022/05/06 02:17:12;;;;;;;3.30;3.00;;;19.60;49.30;;;;;;5077615;28;43742;-60
2022/05/06 02:20:08;;;;;;;3.22;3.03;;;19.60;49.30;;;;;;5066497;28;43476;-60
2022/05/06 02:22:56;;;;;;;3.05;2.85;;;19.60;49.30;;;;;;5056582;28;43619;-60
2022/05/06 02:25:30;;;;;;;3.00;2.80;;;19.50;49.20;;;;;;5080627;28;44040;-61
2022/05/06 02:28:07;;;;;;;3.30;3.00;;;19.50;49.20;;;;;;5074077;28;43462;-60
2022/05/06 02:33:24;;;;;;;3.03;2.80;;;19.50;49.30;;;;;;5083534;27;43503;-60
2022/05/06 02:36:06;;;;;;;3.20;2.97;;;19.50;49.20;;;;;;5075030;28;43799;-60
2022/05/06 02:38:36;;;;;;;3.00;2.70;;;19.50;49.20;;;;;;5072646;28;43514;-60
2022/05/06 02:41:03;;;;;;;2.90;2.70;;;19.50;49.20;;;;;;5068423;28;43463;-60
2022/05/06 02:43:40;;;;;;;2.80;2.60;;;19.50;49.20;;;;;;5077314;28;43542;-60
2022/05/06 02:46:08;;;;;;;2.63;2.42;;;19.50;49.20;;;;;;5081738;27;44948;-60
2022/05/06 02:48:36;;;;;;;2.78;2.58;;;19.40;49.20;;;;;;5073265;28;44049;-60
2022/05/06 02:51:08;;;;;;;2.90;2.70;;;19.40;49.20;;;;;;5069963;28;43459;-60
2022/05/06 02:53:38;;;;;;;2.95;2.75;;;19.40;49.20;;;;;;5079817;28;43569;-59
2022/05/06 02:56:05;;;;;;;2.40;2.30;;;19.40;49.20;;;;;;5083299;27;44853;-60
2022/05/06 02:58:43;;;;;;;2.72;2.53;;;19.40;49.20;;;;;;5061646;28;43391;-60
2022/05/06 03:01:10;;;;;;;2.40;2.30;;;19.40;49.20;;;;;;5085448;27;43418;-59
2022/05/06 03:03:40;;;;;;;2.60;2.40;;;19.40;49.30;;;;;;5072611;28;43577;-60
2022/05/06 03:06:15;;;;;;;2.40;2.30;;;19.40;49.20;;;;;;5071166;28;44674;-60
2022/05/06 03:08:42;;;;;;;2.83;2.63;;;19.40;49.20;;;;;;5070581;28;43479;-60
2022/05/06 03:11:11;;;;;;;2.65;2.45;;;19.40;49.30;;;;;;5078891;28;43474;-61
2022/05/06 03:13:46;;;;;;;2.70;2.55;;;19.40;49.20;;;;;;5070400;28;43494;-60
2022/05/06 03:16:17;;;;;;;2.80;2.60;;;19.30;49.20;;;;;;5070311;28;44948;-60
2022/05/06 03:18:45;;;;;;;2.90;2.70;;;19.30;49.20;;;;;;5053597;28;43433;-60
2022/05/06 03:21:12;;;;;;;2.67;2.50;;;19.30;49.20;;;;;;5078947;28;43442;-60
2022/05/06 03:23:40;;;;;;;2.63;2.42;;;19.30;49.20;;;;;;5074078;28;43458;-60
2022/05/06 03:26:07;;;;;;;2.88;2.67;;;19.30;49.20;;;;;;5065527;28;43807;-60
2022/05/06 03:28:35;;;;;;;3.08;2.88;;;19.30;49.20;;;;;;5069453;28;43407;-60
2022/05/06 03:31:03;;;;;;;3.00;2.80;;;19.30;49.20;;;;;;5077701;28;43976;-60
2022/05/06 03:33:33;;;;;;;3.22;3.03;;;19.30;49.90;;;;;;5072635;28;43446;-60
2022/05/06 03:36:09;;;;;;;3.40;3.10;;;19.20;49.10;;;;;;5062404;28;43964;-60
2022/05/06 03:38:45;;;;;;;3.45;3.15;;;19.20;49.10;;;;;;5078785;28;43453;-60
2022/05/06 03:41:13;;;;;;;3.05;2.85;;;19.20;49.20;;;;;;5071817;28;43441;-60
2022/05/06 03:43:43;;;;;;;3.42;3.17;;;19.20;49.20;;;;;;5070152;28;43578;-60
2022/05/06 03:46:18;;;;;;;3.47;3.20;;;19.20;49.20;;;;;;5078094;27;45050;-60
2022/05/06 03:48:45;;;;;;;3.13;2.92;;;19.20;49.20;;;;;;5057100;28;43439;-60
2022/05/06 03:51:22;;;;;;;3.97;3.30;;;19.20;49.20;;;;;;5076553;28;43554;-60
2022/05/06 03:54:02;;;;;;;3.45;3.15;;;19.20;49.30;;;;;;5070252;27;43508;-60
2022/05/06 03:56:32;;;;;;;3.90;3.60;;;19.10;49.40;;;;;;5073908;28;44980;-60
2022/05/06 03:59:04;;;;;;;3.83;3.53;;;19.20;49.40;;;;;;5077950;28;43404;-60
2022/05/06 04:01:33;;;;;;;3.83;3.53;;;19.10;49.40;;;;;;5074148;28;43471;-61
2022/05/06 04:04:04;;;;;;;3.80;3.50;;;19.10;49.30;;;;;;5065076;28;43557;-60
2022/05/06 04:06:34;;;;;;;3.90;3.60;;;19.10;49.30;;;;;;5077774;28;44306;-61
2022/05/06 04:09:03;;;;;;;3.80;3.50;;;19.10;49.30;;;;;;5076986;28;43736;-60
2022/05/06 04:11:34;;;;;;;3.55;3.25;;;19.10;49.40;;;;;;5068635;28;43498;-60
2022/05/06 04:14:05;;;;;;;3.67;3.38;;;19.10;49.50;;;;;;5074876;28;44006;-60
2022/05/06 04:16:36;;;;;;;3.50;3.20;;;19.00;49.30;;;;;;5092973;27;44952;-60
2022/05/06 04:19:10;;;;;;;3.33;3.13;;;19.10;49.50;;;;;;5076472;28;43983;-60
2022/05/06 04:24:25;;;;;;;3.90;3.50;;;19.00;49.50;;;;;;5088347;27;43410;-60
2022/05/06 04:26:53;;;;;;;3.35;3.10;;;19.00;49.40;;;;;;5077463;28;44636;-60
2022/05/06 04:29:21;;;;;;;3.58;3.30;;;19.00;49.30;;;;;;5072771;28;43452;-60
2022/05/06 04:31:51;;;;;;;3.38;3.17;;;19.00;49.40;;;;;;5092496;27;43449;-60
2022/05/06 04:34:19;;;;;;;3.28;3.08;;;19.00;49.50;;;;;;5078752;28;43450;-61
2022/05/06 04:36:46;;;;;;;3.60;3.00;;;19.00;49.40;;;;;;5076287;28;43928;-61
2022/05/06 04:39:16;;;;;;;3.58;3.28;;;19.00;49.60;;;;;;5067500;28;43425;-60
2022/05/06 04:41:50;;;;;;;3.75;3.35;;;19.00;49.60;;;;;;5071788;28;43396;-60
2022/05/06 04:44:25;;;;;;;3.25;3.05;;;18.90;49.60;;;;;;5076292;28;43462;-60
2022/05/06 04:46:54;;;;;;;3.25;3.05;;;19.00;49.80;;;;;;5061044;28;44704;-59
2022/05/06 04:49:21;;;;;;;3.53;3.33;;;18.90;49.50;;;;;;5065264;28;43913;-60
2022/05/06 04:51:51;;;;;;;3.20;3.00;;;18.90;49.70;;;;;;5074708;28;43463;-60
2022/05/06 04:54:18;;;;;;;3.33;3.10;;;18.90;49.70;;;;;;5078858;28;43691;-60
2022/05/06 04:56:48;;;;;;;3.20;3.00;;;18.90;49.70;;;;;;5075136;27;44039;-60
2022/05/06 04:59:23;;;;;;;3.58;3.35;;;18.90;49.80;;;;;;5067099;27;43475;-59
2022/05/06 05:01:53;;;;;;;3.63;3.33;;;18.90;49.80;;;;;;5060225;28;43841;-60
2022/05/06 05:04:27;;;;;;;3.08;2.88;;;18.90;49.80;;;;;;5078241;28;43538;-61
2022/05/06 05:07:00;;;;;;;3.20;3.00;;;18.80;49.80;;;;;;5067763;28;44945;-60
2022/05/06 05:09:29;;;;;;;3.50;3.30;;;18.80;49.70;;;;;;5063536;28;43550;-61
2022/05/06 05:11:57;;;;;;;3.30;3.10;;;18.80;49.80;;;;;;5077780;28;43460;-61
2022/05/06 05:14:35;;;;;;;2.63;2.42;;;18.80;49.70;;;;;;5068260;28;43492;-60
2022/05/06 05:17:05;;;;;;;2.70;2.60;;;18.80;49.80;;;;;;5068182;28;44989;-60
2022/05/06 05:19:33;;;;;;;3.00;2.80;;;18.80;49.80;;;;;;5077448;28;43448;-61
2022/05/06 05:22:01;;;;;;;2.72;2.53;;;18.80;49.80;;;;;;5079089;28;43412;-60
2022/05/06 05:24:29;;;;;;;3.10;2.90;;;18.80;49.90;;;;;;5076237;28;43576;-59
2022/05/06 05:26:59;;;;;;;2.90;2.70;;;18.80;49.90;;;;;;5063988;28;45248;-60
2022/05/06 05:29:30;;;;;;;2.85;2.65;;;18.80;49.90;;;;;;5079384;28;43988;-60
2022/05/06 05:31:58;;;;;;;2.83;2.63;;;18.80;49.90;;;;;;5078559;28;43444;-60
2022/05/06 05:34:27;;;;;;;2.80;2.60;;;18.80;49.90;;;;;;5073282;28;43427;-60
2022/05/06 05:36:58;;;;;;;2.90;2.70;;;18.80;49.90;;;;;;5066497;28;45029;-61
2022/05/06 05:39:26;;;;;;;3.17;2.97;;;18.80;50.00;;;;;;5079647;28;43351;-60
2022/05/06 05:41:57;;;;;;;2.72;2.60;;;18.80;49.90;;;;;;5076785;28;43546;-60
2022/05/06 05:50:00;;;;;;;2.75;2.63;;;18.80;49.90;;;;;;5085674;27;43558;-61
2022/05/06 05:52:29;;;;;;;2.90;2.70;;;18.80;50.00;;;;;;5067852;28;44002;-61
2022/05/06 05:54:56;;;;;;;2.63;2.40;;;18.70;49.90;;;;;;5071821;27;43538;-61
2022/05/06 05:57:24;;;;;;;2.60;2.50;;;18.80;50.00;;;;;;5078574;28;44700;-60
2022/05/06 05:59:52;;;;;;;2.90;2.70;;;18.80;50.00;;;;;;5078162;28;43452;-60
2022/05/06 06:02:22;;;;;;;3.33;3.13;;;18.80;49.90;;;;;;5065293;28;43417;-60
2022/05/06 06:04:52;;;;;;;2.83;2.63;;;18.80;50.00;;;;;;5077998;28;43521;-61
2022/05/06 06:07:19;;;;;;;2.97;2.78;;;18.80;50.00;;;;;;5077303;28;43790;-60
2022/05/06 06:09:55;;;;;;;2.42;2.33;;;18.70;49.90;;;;;;5074760;28;44011;-60
2022/05/06 06:12:23;;;;;;;3.03;2.83;;;18.70;49.90;;;;;;5066477;28;43405;-60
2022/05/06 06:14:55;;;;;;;3.03;2.83;;;18.80;50.00;;;;;;5079681;28;43519;-60
2022/05/06 06:17:23;;;;;;;3.03;2.83;;;18.80;50.00;;;;;;5086055;27;44935;-61
2022/05/06 06:19:52;;;;;;;3.00;2.80;;;18.70;49.90;;;;;;5072473;27;43986;-60
2022/05/06 06:22:21;;;;;;;2.63;2.42;;;18.70;49.90;;;;;;5063093;28;43450;-60
2022/05/06 06:24:54;;;;;;;3.10;2.90;;;18.70;49.90;;;;;;5076562;28;43476;-61
2022/05/06 06:27:25;;;;;;;3.10;2.90;;;18.70;49.90;;;;;;5076829;28;43758;-60
2022/05/06 06:29:54;;;;;;;3.03;2.83;;;18.70;50.00;;;;;;5064336;28;43496;-61
2022/05/06 06:32:22;;;;;;;3.92;3.25;;;18.70;49.90;;;;;;5062615;28;43399;-61
2022/05/06 06:34:52;;;;;;;5.10;4.60;;;18.70;50.50;;;;;;5077040;28;43566;-59
2022/05/06 06:37:25;;;;;;;4.95;4.45;;;18.70;50.10;;;;;;5071018;28;44041;-62
2022/05/06 06:39:53;;;;;;;7.00;6.22;;;18.70;50.30;;;;;;5066513;28;43969;-61
2022/05/06 06:42:21;;;;;;;5.82;5.32;;;18.80;51.10;;;;;;5060919;28;43483;-61
2022/05/06 06:45:02;;;;;;;6.50;5.82;;;18.80;50.40;;;;;;5067359;28;43503;-60
2022/05/06 06:47:53;;;;;;;5.80;5.30;;;18.90;50.60;;;;;;5066312;28;44681;-60
2022/05/06 06:50:40;;;;;;;5.82;5.32;;;19.10;50.50;;;;;;5050743;28;43859;-61
2022/05/06 06:53:17;;;;;;;5.72;5.22;;;19.30;50.50;;;;;;5082495;27;43469;-61
2022/05/06 06:55:45;;;;;;;6.00;5.43;;;19.50;50.30;;;;;;5075244;28;43482;-62
2022/05/06 06:58:13;;;;;;;5.68;5.18;;;19.60;50.20;;;;;;5072440;28;43793;-60
2022/05/06 07:00:44;;;;;;;5.68;5.18;;;19.80;50.00;;;;;;5069151;28;43648;-61
2022/05/06 07:03:12;;;;;;;4.53;4.13;;;19.90;49.80;;;;;;5075545;28;43375;-62
2022/05/06 07:14:02;;;;;;;4.13;3.83;;;20.60;48.90;;;;;;5073763;28;43497;-61
2022/05/06 07:16:29;;;;;;;3.63;3.40;;;20.70;48.80;;;;;;5071643;28;43582;-61
2022/05/06 07:18:57;;;;;;;3.90;3.50;;;20.90;48.40;;;;;;5075337;28;45052;-60
2022/05/06 07:21:24;;;;;;;3.90;3.60;;;21.00;48.20;;;;;;5077816;28;43376;-60
2022/05/06 07:23:52;;;;;;;4.05;3.60;;;21.10;48.10;;;;;;5079315;27;43381;-63
2022/05/06 07:26:19;;;;;;;4.75;3.35;;;21.20;48.20;;;;;;5073031;28;43527;-61
2022/05/06 07:28:47;;;;;;;4.20;3.55;;;21.20;48.30;;;;;;5077366;28;43798;-59
2022/05/06 07:31:14;;;;;;;5.00;3.60;;;21.30;48.90;;;;;;5076842;28;43741;-61
2022/05/06 07:33:41;;;;;;;3.40;3.10;;;21.40;48.70;;;;;;5076499;28;43397;-62
2022/05/06 07:36:09;;;;;;;3.58;3.17;;;21.50;48.30;;;;;;5075303;28;43493;-61
2022/05/06 07:38:36;;;;;;;5.10;3.05;;;21.50;48.60;;;;;;5082864;28;44853;-60
2022/05/06 07:41:04;;;;;;;2.70;2.50;;;21.60;48.50;;;;;;5074258;28;43491;-61
2022/05/06 07:43:31;;;;;;;4.05;2.72;;;21.70;48.30;;;;;;5075646;28;43492;-60
2022/05/06 07:46:00;;;;;;;3.35;3.05;;;21.80;48.40;;;;;;5074651;28;43628;-62
2022/05/06 07:48:28;;;;;;;2.90;2.70;;;21.80;48.30;;;;;;5076314;28;43997;-60
2022/05/06 07:51:05;;;;;;;2.90;2.53;;;21.90;48.20;;;;;;5075879;28;43627;-61
2022/05/06 07:53:33;;;;;;;2.55;2.35;;;22.00;48.30;;;;;;5075741;27;43470;-61
2022/05/06 07:56:00;;;;;;;5.18;2.92;;;22.10;48.10;;;;;;5074310;28;43451;-60
2022/05/06 07:58:28;;;;;;;2.83;2.20;;;22.20;48.10;;;;;;5084148;28;44586;-61
2022/05/06 08:00:56;;;;;;;2.63;2.22;;;22.30;47.60;;;;;;5076989;28;43650;-61
2022/05/06 08:06:09;;;;;;;2.33;2.22;;;22.40;47.40;;;;;;5074875;28;43518;-61
2022/05/06 08:08:37;;;;;;;3.63;2.22;;;22.50;47.20;;;;;;5076368;27;44933;-60
2022/05/06 08:11:04;;;;;;;2.25;2.00;;;22.60;47.20;;;;;;5077507;27;43400;-61
2022/05/06 08:13:32;;;;;;;2.05;1.83;;;22.70;47.00;;;;;;5069647;28;43441;-60
2022/05/06 08:15:59;;;;;;;2.17;1.85;;;22.70;46.90;;;;;;5074745;28;43458;-61
2022/05/06 08:18:28;;;;;;;2.00;1.80;;;22.80;46.80;;;;;;5077517;28;43871;-60
2022/05/06 08:20:55;;;;;;;2.20;2.00;;;22.80;46.80;;;;;;5083467;27;44193;-60
2022/05/06 08:23:24;;;;;;;2.55;2.05;;;22.90;46.80;;;;;;5073844;28;43424;-61
2022/05/06 08:25:52;;;;;;;2.55;2.10;;;22.90;46.70;;;;;;5084857;28;43412;-61
2022/05/06 08:28:20;;;;;;;2.38;1.70;;;22.90;47.00;;;;;;5074821;27;44696;-61
2022/05/06 08:30:48;;;;;;;2.78;2.28;;;22.90;46.70;;;;;;5074279;28;43916;-61
2022/05/06 08:33:16;;;;;;;3.97;2.10;;;22.90;46.70;;;;;;5071707;27;43561;-61
2022/05/06 08:35:44;;;;;;;2.22;2.03;;;22.90;46.80;;;;;;5083082;28;43484;-60
2022/05/06 08:38:12;;;;;;;3.30;2.30;;;22.80;46.70;;;;;;5074526;28;44718;-61
2022/05/06 08:40:39;;;;;;;3.75;2.20;;;22.80;46.80;;;;;;5073872;28;43977;-60
2022/05/06 08:43:07;;;;;;;2.40;2.20;;;22.70;46.90;;;;;;5078325;28;43529;-60
2022/05/06 08:51:13;;;;;;;2.17;1.87;;;22.60;47.20;;;;;;5075052;28;43997;-61
2022/05/06 08:53:41;;;;;;;2.47;2.22;;;22.60;47.30;;;;;;5082788;28;43983;-62
2022/05/06 08:56:09;;;;;;;2.65;1.80;;;22.50;47.50;;;;;;5077394;28;43431;-61
2022/05/06 08:58:37;;;;;;;3.53;1.70;;;22.40;47.50;;;;;;5072880;28;45014;-61
2022/05/06 09:01:10;;;;;;;2.88;1.88;;;22.40;47.60;;;;;;5074376;28;43814;-60
2022/05/06 09:03:45;;;;;;;3.95;2.15;;;22.30;47.70;;;;;;5079686;27;43610;-61
2022/05/06 09:06:25;;;;;;;1.70;1.60;;;22.30;47.90;;;;;;5076722;27;43553;-60
2022/05/06 09:08:55;;;;;;;4.43;2.15;;;22.20;48.00;;;;;;5083890;28;44921;-61
2022/05/06 09:16:39;;;;;;;3.42;1.80;;;22.10;48.10;;;;;;5076155;28;43518;-60
2022/05/06 09:17:19;;;;;;;2.83;1.67;;;22.10;48.20;;;;;;5069563;28;43425;-61
2022/05/06 09:19:47;;;;;;;2.25;1.80;;;22.00;48.30;;;;;;5079564;28;43899;-61
2022/05/06 09:22:16;;;;;;;2.28;1.90;;;22.00;48.40;;;;;;5061011;28;43389;-61
2022/05/06 09:24:50;;;;;;;1.92;1.80;;;21.90;48.40;;;;;;5075336;28;43432;-60
2022/05/06 09:27:19;;;;;;;2.75;1.90;;;21.90;48.50;;;;;;5068978;28;43565;-60
2022/05/06 09:29:50;;;;;;;3.33;2.17;;;21.90;48.60;;;;;;5082153;28;44902;-61
2022/05/06 09:32:24;;;;;;;2.03;1.83;;;21.90;48.60;;;;;;5094692;27;43662;-61
2022/05/06 09:35:15;;;;;;;1.98;1.83;;;21.80;48.70;;;;;;5071300;28;43369;-60
2022/05/06 09:37:44;;;;;;;2.47;1.70;;;21.80;48.70;;;;;;5068374;28;43525;-60
2022/05/06 09:40:15;;;;;;;2.70;2.00;;;21.80;48.80;;;;;;5082400;27;44941;-61
2022/05/06 09:42:43;;;;;;;;;;;21.80;48.80;;;;;;5082203;27;43416;-61
2022/05/06 09:45:13;;;;;;;4.38;2.20;;;21.70;48.90;;;;;;5069195;28;43437;-61
2022/05/06 09:47:42;;;;;;;2.53;1.90;;;21.70;49.00;;;;;;5079844;28;43622;-61
2022/05/06 09:50:11;;;;;;;4.05;2.45;;;21.70;49.00;;;;;;5066866;28;43924;-61
2022/05/06 09:52:39;;;;;;;3.22;2.50;;;21.70;49.10;;;;;;5065682;28;44090;-60
2022/05/06 09:55:07;;;;;;;4.03;2.15;;;21.70;49.20;;;;;;5070223;28;43518;-60
2022/05/06 09:57:36;;;;;;;5.55;2.72;;;21.70;49.20;;;;;;5097184;27;43628;-61
2022/05/06 10:00:06;;;;;;;4.65;2.10;;;21.70;49.20;;;;;;5073013;28;44302;-61
2022/05/06 10:02:37;;;;;;;3.05;2.40;;;21.60;49.20;;;;;;5066252;28;43494;-62
2022/05/06 10:05:06;;;;;;;3.00;2.20;;;21.60;49.20;;;;;;5064365;28;43468;-61
2022/05/06 10:07:34;;;;;;;3.85;2.35;;;21.70;49.20;;;;;;5064843;28;43478;-60
2022/05/06 10:10:07;;;;;;;4.72;2.22;;;21.60;49.10;;;;;;5063710;28;43789;-60
2022/05/06 10:12:42;;;;;;;4.97;2.30;;;21.70;49.10;;;;;;5065720;28;43547;-60
2022/05/06 10:15:13;;;;;;;3.55;2.25;;;21.70;49.10;;;;;;5064922;28;43548;-60
2022/05/06 10:17:52;;;;;;;3.13;2.30;;;21.70;49.10;;;;;;5067911;28;43452;-61
2022/05/06 10:23:09;;;;;;;3.63;2.55;;;21.70;49.10;;;;;;5066315;28;43459;-60
2022/05/06 10:25:44;;;;;;;4.72;2.45;;;21.70;49.10;;;;;;5067486;28;43450;-60
2022/05/06 10:34:30;;;;;;;3.65;2.63;;;21.70;49.30;;;;;;5072619;27;44240;-61
2022/05/06 10:37:01;;;;;;;5.78;2.95;;;21.70;49.30;;;;;;5093207;27;43478;-61
2022/05/06 10:39:36;;;;;;;4.95;3.10;;;21.70;49.30;;;;;;5069115;28;43597;-61
2022/05/06 10:42:08;;;;;;;3.95;2.60;;;21.70;49.30;;;;;;5066561;28;44936;-61
2022/05/06 10:44:42;;;;;;;4.28;2.83;;;21.70;49.40;;;;;;5074205;28;43455;-61
2022/05/06 10:47:13;;;;;;;3.72;2.72;;;21.70;49.30;;;;;;5076063;28;43412;-61
2022/05/06 10:49:42;;;;;;;4.05;2.85;;;21.70;49.60;;;;;;5068387;28;43584;-61
2022/05/06 10:52:16;;;;;;;4.35;2.45;;;21.70;49.50;;;;;;5079094;28;44054;-61
2022/05/06 10:54:47;;;;;;;4.97;2.72;;;21.70;49.40;;;;;;5060764;28;43515;-61
2022/05/06 10:57:16;;;;;;;3.88;2.50;;;21.70;49.50;;;;;;5081203;27;43511;-62
2022/05/06 11:00:07;;;;;;;4.80;2.60;;;21.70;49.50;;;;;;5069122;28;44144;-60
2022/05/06 11:02:38;;;;;;;3.50;2.60;;;21.70;49.50;;;;;;5054726;28;44977;-61
2022/05/06 11:05:07;;;;;;;5.15;2.60;;;21.70;49.50;;;;;;5074692;28;43557;-61
2022/05/06 11:07:37;;;;;;;3.47;2.50;;;21.70;49.60;;;;;;5073122;28;43992;-61
2022/05/06 11:10:10;;;;;;;3.53;2.70;;;21.70;49.60;;;;;;5072608;27;43403;-61
2022/05/06 11:12:46;;;;;;;3.38;2.40;;;21.70;49.60;;;;;;5084306;28;44950;-60
2022/05/06 11:15:16;;;;;;;3.88;2.50;;;21.70;49.80;;;;;;5076844;28;43438;-61
2022/05/06 11:17:45;;;;;;;4.50;2.50;;;21.70;49.70;;;;;;5075204;28;43466;-61
2022/05/06 11:20:22;;;;;;;3.72;2.53;;;21.80;49.80;;;;;;5079447;27;43647;-60
2022/05/06 11:23:01;;;;;;;4.50;2.67;;;21.80;49.60;;;;;;5067196;28;43804;-61
2022/05/06 11:25:32;;;;;;;3.47;2.55;;;21.70;49.70;;;;;;5071562;28;43484;-61
2022/05/06 11:28:01;;;;;;;3.92;2.60;;;21.70;49.80;;;;;;5071475;28;43496;-61
2022/05/06 11:30:30;;;;;;;4.57;2.50;;;21.70;49.90;;;;;;5076308;28;43450;-61
2022/05/06 11:33:01;;;;;;;2.90;2.47;;;21.70;50.00;;;;;;5081714;28;43873;-61
2022/05/06 11:35:45;;;;;;;3.92;2.58;;;21.70;50.10;;;;;;5076555;28;43653;-60
2022/05/06 11:38:14;;;;;;;4.53;2.40;;;21.70;50.00;;;;;;5068424;28;43393;-62
2022/05/06 11:40:43;;;;;;;2.72;2.20;;;21.70;49.90;;;;;;5078229;28;43482;-61
2022/05/06 11:43:21;;;;;;;4.30;2.38;;;21.70;50.10;;;;;;5074599;28;44689;-61
2022/05/06 11:48:45;;;;;;;3.15;2.30;;;21.80;50.80;;;;;;5074796;28;44149;-61
2022/05/06 11:51:30;;;;;;;2.72;2.15;;;21.80;50.20;;;;;;5078874;28;43606;-61
2022/05/06 11:53:59;;;;;;;2.63;2.35;;;21.80;49.80;;;;;;5068523;28;44172;-61
2022/05/06 11:56:28;;;;;;;4.38;2.15;;;21.80;50.00;;;;;;5079362;28;43504;-61
2022/05/06 11:58:57;;;;;;;2.53;2.00;;;21.80;50.50;;;;;;5082006;28;43452;-61
2022/05/06 12:01:29;;;;;;;2.70;2.08;;;21.80;50.00;;;;;;5077091;28;43542;-61
2022/05/06 12:04:05;;;;;;;2.42;2.20;;;21.90;50.10;;;;;;5066887;28;43904;-62
2022/05/06 12:06:40;;;;;;;2.20;2.00;;;21.90;50.20;;;;;;5070211;28;43522;-61
2022/05/06 12:09:28;;;;;;;2.58;2.17;;;21.90;49.80;;;;;;5060473;28;43510;-61
2022/05/06 12:12:05;;;;;;;4.25;2.13;;;21.90;49.90;;;;;;5072207;28;43443;-61
2022/05/06 12:14:33;;;;;;;2.83;2.10;;;21.90;50.50;;;;;;5096188;27;43751;-61
2022/05/06 12:17:02;;;;;;;2.30;2.10;;;22.00;50.40;;;;;;5080248;28;43455;-61
2022/05/06 12:19:39;;;;;;;2.45;2.00;;;22.00;50.10;;;;;;5067392;28;43452;-61
2022/05/06 12:22:15;;;;;;;2.78;1.85;;;22.00;50.10;;;;;;5076010;28;43375;-62
2022/05/06 12:24:50;;;;;;;3.20;1.88;;;22.00;50.00;;;;;;5078100;28;45787;-61
2022/05/06 12:27:34;;;;;;;2.30;1.80;;;22.00;50.30;;;;;;5078820;28;44001;-61
2022/05/06 12:30:02;;;;;;;4.25;1.92;;;22.10;50.10;;;;;;5068185;28;43440;-61
2022/05/06 12:32:30;;;;;;;2.20;1.83;;;22.10;50.20;;;;;;5070301;28;43482;-61
2022/05/06 12:35:09;;;;;;;2.00;1.80;;;22.20;50.00;;;;;;5083083;28;43787;-61
2022/05/06 12:37:52;;;;;;;2.38;1.83;;;22.20;49.80;;;;;;5076829;28;43473;-61
2022/05/06 12:40:20;;;;;;;1.98;1.83;;;22.20;50.00;;;;;;5075289;28;43463;-61
2022/05/06 12:43:10;;;;;;;2.10;1.90;;;22.20;49.80;;;;;;5069759;28;43466;-60
2022/05/06 12:45:59;;;;;;;3.15;2.10;;;22.20;49.70;;;;;;5070378;28;43844;-61
2022/05/06 12:51:12;;;;;;;1.90;1.70;;;22.30;49.60;;;;;;5068245;28;43387;-61
2022/05/06 12:53:39;;;;;;;2.78;2.10;;;22.30;49.60;;;;;;5070286;28;43946;-61
2022/05/06 12:56:21;;;;;;;1.98;1.80;;;22.30;49.50;;;;;;5077887;28;44723;-61
2022/05/06 12:58:48;;;;;;;3.30;1.63;;;22.30;49.50;;;;;;5068007;28;43431;-61
2022/05/06 13:01:15;;;;;;;1.80;1.70;;;22.40;49.50;;;;;;5077548;28;43468;-61
2022/05/06 13:03:43;;;;;;;1.90;1.60;;;22.40;49.50;;;;;;5073636;28;43490;-60
2022/05/06 13:06:11;;;;;;;2.55;1.70;;;22.40;49.50;;;;;;5077323;27;43808;-61
2022/05/06 13:08:38;;;;;;;2.13;1.52;;;22.40;50.10;;;;;;5071292;28;43852;-61
2022/05/06 13:11:06;;;;;;;1.63;1.50;;;22.40;49.40;;;;;;5076416;28;43466;-61
2022/05/06 13:13:33;;;;;;;1.83;1.70;;;22.40;49.40;;;;;;5074497;27;43446;-61
2022/05/06 13:16:01;;;;;;;2.50;1.75;;;22.40;49.60;;;;;;5092181;27;44731;-60
2022/05/06 13:18:30;;;;;;;1.83;1.73;;;22.30;49.30;;;;;;5069049;28;44134;-61
2022/05/06 13:20:57;;;;;;;2.33;1.58;;;22.30;49.50;;;;;;5075142;28;43484;-60
2022/05/06 13:23:25;;;;;;;1.50;1.40;;;22.30;49.50;;;;;;5077321;27;43490;-61
2022/05/06 13:25:53;;;;;;;1.80;1.50;;;22.30;49.50;;;;;;5091126;27;43750;-61
2022/05/06 13:28:20;;;;;;;1.95;1.65;;;22.30;49.60;;;;;;5073442;27;43365;-61
2022/05/06 13:30:48;;;;;;;2.28;1.70;;;22.30;49.60;;;;;;5081235;28;43562;-61
2022/05/06 13:33:15;;;;;;;1.70;1.60;;;22.30;49.70;;;;;;5073597;28;43984;-61
2022/05/06 13:35:43;;;;;;;2.10;1.40;;;22.20;49.60;;;;;;5073797;27;43806;-61
2022/05/06 13:38:11;;;;;;;2.28;1.60;;;22.20;49.60;;;;;;5073527;28;43481;-60
2022/05/06 13:40:39;;;;;;;1.65;1.52;;;22.20;49.70;;;;;;5081568;28;43500;-61
2022/05/06 13:43:06;;;;;;;2.13;1.80;;;22.10;49.80;;;;;;5074670;28;43442;-60
2022/05/06 13:45:34;;;;;;;1.75;1.65;;;22.20;49.90;;;;;;5068830;28;43931;-61
2022/05/06 13:48:02;;;;;;;2.20;1.95;;;22.20;49.90;;;;;;5068730;28;44931;-61
2022/05/06 13:50:29;;;;;;;1.95;1.40;;;22.20;49.90;;;;;;5075559;28;43481;-61
2022/05/06 13:52:57;;;;;;;1.73;1.40;;;22.10;49.90;;;;;;5074137;28;43492;-60
2022/05/06 13:59:03;;;;;;;1.88;1.65;;;22.10;50.00;;;;;;5071884;27;44963;-61